createdAt,value
2023-05-09T00:01:24.704Z,78.69
2023-05-09T00:03:52.366Z,78.92
2023-05-09T00:06:19.886Z,78.95
2023-05-09T00:08:46.545Z,78.72
2023-05-09T00:11:13.183Z,78.84
2023-05-09T00:13:40.090Z,78.56
2023-05-09T00:16:07.135Z,78.86
2023-05-09T00:18:34.126Z,78.47
2023-05-09T00:21:04.057Z,78.61
2023-05-09T00:23:30.937Z,78.46
2023-05-09T00:25:58.130Z,78.30
2023-05-09T00:28:24.786Z,78.17
2023-05-09T00:30:51.322Z,78.56
2023-05-09T00:33:19.390Z,78.21
2023-05-09T00:35:46.408Z,78.04
2023-05-09T00:38:13.549Z,78.43
2023-05-09T00:40:40.346Z,78.64
2023-05-09T00:43:07.019Z,78.79
2023-05-09T00:45:34.002Z,79.00
2023-05-09T00:48:00.707Z,78.71
2023-05-09T00:50:27.490Z,79.34
2023-05-09T00:52:54.155Z,78.93
2023-05-09T00:55:21.510Z,79.04
2023-05-09T00:57:48.035Z,78.93
2023-05-09T01:00:14.993Z,79.10
2023-05-09T01:02:43.920Z,78.61
2023-05-09T01:05:12.106Z,78.98
2023-05-09T01:07:47.730Z,78.89
2023-05-09T01:10:35.237Z,78.84
2023-05-09T01:13:09.184Z,78.98
2023-05-09T01:16:17.839Z,78.83
2023-05-09T01:18:52.018Z,79.14
2023-05-09T01:21:24.154Z,79.26
2023-05-09T01:24:09.612Z,79.04
2023-05-09T01:26:36.180Z,79.11
2023-05-09T01:29:21.532Z,79.08
2023-05-09T01:31:49.322Z,79.31
2023-05-09T01:34:18.121Z,79.19
2023-05-09T01:36:47.445Z,79.42
2023-05-09T01:39:14.978Z,79.38
2023-05-09T01:41:41.583Z,79.21
2023-05-09T01:44:11.559Z,79.48
2023-05-09T01:46:39.455Z,79.33
2023-05-09T01:49:09.099Z,79.38
2023-05-09T01:51:37.553Z,79.45
2023-05-09T01:54:06.073Z,79.66
2023-05-09T01:56:33.375Z,79.31
2023-05-09T01:59:02.273Z,79.34
2023-05-09T02:01:30.441Z,79.28
2023-05-09T02:03:57.494Z,79.30
2023-05-09T02:06:24.795Z,79.55
2023-05-09T02:08:51.828Z,79.42
2023-05-09T02:11:18.620Z,79.26
2023-05-09T02:13:45.491Z,79.29
2023-05-09T02:16:12.566Z,79.54
2023-05-09T02:18:39.241Z,79.09
2023-05-09T02:21:06.476Z,79.38
2023-05-09T02:23:33.323Z,79.52
2023-05-09T02:26:00.533Z,79.35
2023-05-09T02:28:28.453Z,79.29
2023-05-09T02:30:57.210Z,79.66
2023-05-09T02:33:24.458Z,79.42
2023-05-09T02:35:51.971Z,79.51
2023-05-09T02:38:19.333Z,79.16
2023-05-09T02:40:47.638Z,79.63
2023-05-09T02:43:15.324Z,79.68
2023-05-09T02:45:42.296Z,79.72
2023-05-09T02:48:09.463Z,79.28
2023-05-09T02:50:38.310Z,79.84
2023-05-09T02:53:05.625Z,79.64
2023-05-09T02:55:32.202Z,79.58
2023-05-09T02:58:12.112Z,79.54
2023-05-09T03:00:40.108Z,79.56
2023-05-09T03:03:06.938Z,79.41
2023-05-09T03:05:33.624Z,79.47
2023-05-09T03:08:00.360Z,79.38
2023-05-09T03:10:26.996Z,79.34
2023-05-09T03:12:53.610Z,79.44
2023-05-09T03:15:21.168Z,79.61
2023-05-09T03:17:48.007Z,79.75
2023-05-09T03:20:15.853Z,79.45
2023-05-09T03:22:42.819Z,79.82
2023-05-09T03:25:09.635Z,79.79
2023-05-09T03:27:36.235Z,79.18
2023-05-09T03:30:02.917Z,79.75
2023-05-09T03:32:29.881Z,79.64
2023-05-09T03:34:57.259Z,79.85
2023-05-09T03:37:26.220Z,79.85
2023-05-09T03:39:53.903Z,79.62
2023-05-09T03:42:20.509Z,79.69
2023-05-09T03:44:47.544Z,79.82
2023-05-09T03:47:14.168Z,79.99
2023-05-09T03:49:41.554Z,80.14
2023-05-09T03:52:08.198Z,80.04
2023-05-09T03:54:34.947Z,79.88
2023-05-09T03:57:01.619Z,80.32
2023-05-09T03:59:28.201Z,79.84
2023-05-09T04:01:55.021Z,80.07
2023-05-09T04:04:21.858Z,80.11
2023-05-09T04:06:48.608Z,80.34
2023-05-09T04:09:15.591Z,80.22
2023-05-09T04:11:42.213Z,80.20
2023-05-09T04:14:08.916Z,80.22
2023-05-09T04:32:28.623Z,80.56
2023-05-09T04:34:55.267Z,80.81
2023-05-09T04:37:22.036Z,80.83
2023-05-09T04:39:48.888Z,80.87
2023-05-09T04:42:15.700Z,81.21
2023-05-09T04:44:42.388Z,80.85
2023-05-09T04:47:09.324Z,81.15
2023-05-09T04:49:35.885Z,80.89
2023-05-09T04:52:02.568Z,81.39
2023-05-09T04:54:29.403Z,81.39
2023-05-09T04:57:03.219Z,81.37
2023-05-09T04:59:36.781Z,81.55
2023-05-09T05:02:03.751Z,81.43
2023-05-09T05:04:30.588Z,81.04
2023-05-09T05:06:57.409Z,81.01
2023-05-09T05:09:24.338Z,81.18
2023-05-09T05:11:59.967Z,81.26
2023-05-09T05:14:27.783Z,80.96
2023-05-09T05:16:54.572Z,81.58
2023-05-09T05:19:21.160Z,81.46
2023-05-09T05:21:47.843Z,80.92
2023-05-09T05:24:14.413Z,81.51
2023-05-09T05:26:40.989Z,81.43
2023-05-09T05:29:07.831Z,81.45
2023-05-09T05:31:34.446Z,81.59
2023-05-09T05:34:01.041Z,81.38
2023-05-09T05:36:27.805Z,81.70
2023-05-09T05:38:54.412Z,81.57
2023-05-09T05:41:21.238Z,81.69
2023-05-09T05:43:47.970Z,81.89
2023-05-09T05:46:14.586Z,81.81
2023-05-09T05:48:41.220Z,81.92
2023-05-09T05:51:08.058Z,81.71
2023-05-09T05:53:34.971Z,82.03
2023-05-09T05:56:02.066Z,81.54
2023-05-09T05:58:28.719Z,82.15
2023-05-09T06:00:55.404Z,82.10
2023-05-09T06:03:22.078Z,82.16
2023-05-09T06:05:49.209Z,82.03
2023-05-09T06:08:15.914Z,81.87
2023-05-09T06:10:42.542Z,81.68
2023-05-09T06:13:09.344Z,81.49
2023-05-09T06:15:35.954Z,81.74
2023-05-09T06:18:02.688Z,81.76
2023-05-09T06:20:29.434Z,81.42
2023-05-09T06:22:55.997Z,81.34
2023-05-09T06:25:22.668Z,81.43
2023-05-09T06:27:49.339Z,81.60
2023-05-09T06:30:25.763Z,81.74
2023-05-09T06:32:54.050Z,81.39
2023-05-09T06:35:20.898Z,81.32
2023-05-09T06:37:48.874Z,81.19
2023-05-09T06:40:16.585Z,80.98
2023-05-09T06:42:43.378Z,80.83
2023-05-09T06:45:10.717Z,80.84
2023-05-09T06:47:37.650Z,81.00
2023-05-09T06:50:04.499Z,80.87
2023-05-09T06:52:31.216Z,80.67
2023-05-09T06:54:58.022Z,80.75
2023-05-09T06:57:24.746Z,80.62
2023-05-09T06:59:51.324Z,80.50
2023-05-09T07:02:18.181Z,80.70
2023-05-09T07:04:44.847Z,80.76
2023-05-09T07:07:11.610Z,80.36
2023-05-09T07:09:38.616Z,80.96
2023-05-09T07:12:05.622Z,80.29
2023-05-09T07:14:32.251Z,80.59
2023-05-09T07:17:10.301Z,80.62
2023-05-09T07:19:45.308Z,80.63
2023-05-09T07:22:13.641Z,80.71
2023-05-09T07:24:40.310Z,80.38
2023-05-09T07:27:06.991Z,80.24
2023-05-09T07:29:33.874Z,80.91
2023-05-09T07:32:00.710Z,80.26
2023-05-09T07:34:27.599Z,80.64
2023-05-09T07:36:54.476Z,80.90
2023-05-09T07:39:21.154Z,80.70
2023-05-09T07:41:48.768Z,80.47
2023-05-09T07:44:16.033Z,80.47
2023-05-09T07:46:42.945Z,80.25
2023-05-09T07:49:09.762Z,80.37
2023-05-09T07:51:36.814Z,80.15
2023-05-09T07:54:03.743Z,79.85
2023-05-09T07:56:30.536Z,79.87
2023-05-09T07:58:57.391Z,80.11
2023-05-09T08:01:24.086Z,80.01
2023-05-09T08:03:50.913Z,80.13
2023-05-09T08:06:17.860Z,80.01
2023-05-09T08:08:44.504Z,80.05
2023-05-09T08:11:11.102Z,79.87
2023-05-09T08:13:37.932Z,79.84
2023-05-09T08:16:04.980Z,79.80
2023-05-09T08:18:31.703Z,79.73
2023-05-09T08:20:59.847Z,79.46
2023-05-09T08:23:26.990Z,78.91
2023-05-09T08:25:54.729Z,78.86
2023-05-09T08:28:24.387Z,78.60
2023-05-09T08:30:52.359Z,78.51
2023-05-09T08:33:19.234Z,77.93
2023-05-09T08:35:46.268Z,78.28
2023-05-09T08:38:12.905Z,78.19
2023-05-09T08:40:41.276Z,77.98
2023-05-09T08:43:08.930Z,77.93
2023-05-09T08:45:46.397Z,77.65
2023-05-09T08:48:15.954Z,77.31
2023-05-09T08:50:43.728Z,77.05
2023-05-09T08:53:11.900Z,77.15
2023-05-09T08:55:39.166Z,76.94
2023-05-09T08:58:06.424Z,76.76
2023-05-09T09:00:33.887Z,76.39
2023-05-09T09:03:04.107Z,75.95
2023-05-09T09:05:41.169Z,75.95
2023-05-09T09:08:09.453Z,75.79
2023-05-09T09:10:41.517Z,75.48
2023-05-09T09:13:10.101Z,75.45
2023-05-09T09:15:38.621Z,75.05
2023-05-09T09:18:11.653Z,74.85
2023-05-09T09:20:45.171Z,74.31
2023-05-09T09:23:13.003Z,74.53
2023-05-09T09:25:39.644Z,74.22
2023-05-09T09:28:06.518Z,74.05
2023-05-09T09:30:33.268Z,73.73
2023-05-09T09:33:00.718Z,73.48
2023-05-09T09:35:27.596Z,73.38
2023-05-09T09:38:00.186Z,73.10
2023-05-09T09:40:27.124Z,72.80
2023-05-09T09:42:53.969Z,72.71
2023-05-09T09:45:20.871Z,72.75
2023-05-09T09:47:50.059Z,72.56
2023-05-09T09:50:23.387Z,72.54
2023-05-09T09:52:51.611Z,72.29
2023-05-09T09:55:19.238Z,72.04
2023-05-09T09:57:48.142Z,71.63
2023-05-09T10:00:17.321Z,71.16
2023-05-09T10:02:52.458Z,70.50
2023-05-09T10:05:24.438Z,71.17
2023-05-09T10:08:03.233Z,70.63
2023-05-09T10:10:34.788Z,71.13
2023-05-09T10:13:10.770Z,70.53
2023-05-09T10:15:52.172Z,70.20
2023-05-09T10:18:25.261Z,69.49
2023-05-09T10:20:53.346Z,68.63
2023-05-09T10:23:20.916Z,68.45
2023-05-09T10:25:52.567Z,68.06
2023-05-09T10:28:27.951Z,67.50
2023-05-09T10:30:59.673Z,67.68
2023-05-09T10:33:41.918Z,66.77
2023-05-09T10:36:09.247Z,67.35
2023-05-09T10:38:37.283Z,67.10
2023-05-09T10:41:05.245Z,66.94
2023-05-09T10:43:34.742Z,66.36
2023-05-09T10:46:04.614Z,65.86
2023-05-09T10:48:34.541Z,65.33
2023-05-09T10:51:02.391Z,65.62
2023-05-09T10:53:56.229Z,65.29
2023-05-09T10:56:27.483Z,65.05
2023-05-09T10:58:54.724Z,64.52
2023-05-09T11:01:32.958Z,64.07
2023-05-09T11:04:00.278Z,64.61
2023-05-09T11:06:44.089Z,63.90
2023-05-09T11:09:34.233Z,64.38
2023-05-09T11:12:10.101Z,64.11
2023-05-09T11:14:44.949Z,64.44
2023-05-09T11:17:28.385Z,63.92
2023-05-09T11:20:05.649Z,63.75
2023-05-09T11:22:43.165Z,63.71
2023-05-09T11:25:12.703Z,63.55
2023-05-09T11:27:48.651Z,62.90
2023-05-09T11:30:17.721Z,62.60
2023-05-09T11:32:51.837Z,62.47
2023-05-09T11:35:21.017Z,62.40
2023-05-09T11:38:04.952Z,62.67
2023-05-09T11:40:33.984Z,62.59
2023-05-09T11:43:01.569Z,62.58
2023-05-09T11:45:33.202Z,62.40
2023-05-09T11:48:01.165Z,62.26
2023-05-09T11:50:28.677Z,62.37
2023-05-09T11:52:55.353Z,62.18
2023-05-09T11:55:22.876Z,62.08
2023-05-09T11:57:51.900Z,61.66
2023-05-09T12:00:22.851Z,61.45
2023-05-09T12:02:51.210Z,61.07
2023-05-09T12:05:20.002Z,60.91
2023-05-09T12:07:47.517Z,60.58
2023-05-09T12:10:21.583Z,59.69
2023-05-09T12:12:50.672Z,59.35
2023-05-09T12:15:18.139Z,59.36
2023-05-09T12:17:47.255Z,59.18
2023-05-09T12:20:15.142Z,59.32
2023-05-09T12:22:45.245Z,58.58
2023-05-09T12:25:12.470Z,58.42
2023-05-09T12:27:42.605Z,57.97
2023-05-09T12:30:14.182Z,58.25
2023-05-09T12:32:41.911Z,57.87
2023-05-09T12:35:10.976Z,57.03
2023-05-09T12:37:37.988Z,57.47
2023-05-09T12:40:06.314Z,57.15
2023-05-09T12:42:34.870Z,56.87
2023-05-09T12:45:03.172Z,56.74
2023-05-09T12:47:31.951Z,56.59
2023-05-09T12:50:03.761Z,56.68
2023-05-09T12:53:01.426Z,56.38
2023-05-09T12:55:31.205Z,56.39
2023-05-09T12:58:03.536Z,56.67
2023-05-09T13:00:44.146Z,56.00
2023-05-09T13:03:25.252Z,56.59
2023-05-09T13:06:02.026Z,56.35
2023-05-09T13:08:29.431Z,56.19
2023-05-09T13:11:04.462Z,56.19
2023-05-09T13:13:35.298Z,56.77
2023-05-09T13:16:04.301Z,56.66
2023-05-09T13:18:30.875Z,57.06
2023-05-09T13:20:57.576Z,57.38
2023-05-09T13:23:24.155Z,57.65
2023-05-09T13:25:51.602Z,58.27
2023-05-09T13:28:18.871Z,58.31
2023-05-09T13:30:45.879Z,58.86
2023-05-09T13:33:24.474Z,59.13
2023-05-09T13:35:51.991Z,59.66
2023-05-09T13:38:18.705Z,60.28
2023-05-09T13:40:45.294Z,60.41
2023-05-09T13:43:12.324Z,61.03
2023-05-09T13:45:39.532Z,61.54
2023-05-09T13:48:06.453Z,62.15
2023-05-09T13:50:35.360Z,62.54
2023-05-09T13:53:01.982Z,62.88
2023-05-09T13:55:29.647Z,63.46
2023-05-09T13:57:56.725Z,63.75
2023-05-09T14:00:26.519Z,64.16
2023-05-09T14:02:53.315Z,64.46
2023-05-09T14:05:20.133Z,65.23
2023-05-09T14:07:47.479Z,65.71
2023-05-09T14:10:14.331Z,65.66
2023-05-09T14:12:44.273Z,66.00
2023-05-09T14:15:11.332Z,66.30
2023-05-09T14:17:38.157Z,66.84
2023-05-09T14:20:05.599Z,66.95
2023-05-09T14:22:32.672Z,67.18
2023-05-09T14:24:59.224Z,67.38
2023-05-09T14:27:26.306Z,67.19
2023-05-09T14:29:53.246Z,67.23
2023-05-09T14:32:19.910Z,67.52
2023-05-09T14:34:49.608Z,67.62
2023-05-09T14:37:16.436Z,67.98
2023-05-09T14:39:45.168Z,68.05
2023-05-09T14:42:14.254Z,68.21
2023-05-09T14:44:41.958Z,68.34
2023-05-09T14:47:09.861Z,68.68
2023-05-09T14:49:37.988Z,68.44
2023-05-09T14:52:04.798Z,68.90
2023-05-09T14:54:31.665Z,68.80
2023-05-09T14:56:59.678Z,69.22
2023-05-09T14:59:26.327Z,69.23
2023-05-09T15:01:52.999Z,69.27
2023-05-09T15:04:19.723Z,69.43
2023-05-09T15:06:46.356Z,69.35
2023-05-09T15:09:13.107Z,69.81
2023-05-09T15:11:47.587Z,69.73
2023-05-09T15:14:15.368Z,69.72
2023-05-09T15:16:42.468Z,70.01
2023-05-09T15:19:09.085Z,70.01
2023-05-09T15:21:35.961Z,70.13
2023-05-09T15:24:03.573Z,69.83
2023-05-09T15:26:30.291Z,70.14
2023-05-09T15:28:56.910Z,69.89
2023-05-09T15:31:25.025Z,70.19
2023-05-09T15:33:51.900Z,70.21
2023-05-09T15:36:18.564Z,70.36
2023-05-09T15:38:49.816Z,70.84
2023-05-09T15:41:16.875Z,70.42
2023-05-09T15:43:43.660Z,70.72
2023-05-09T15:46:10.668Z,70.76
2023-05-09T15:48:37.284Z,71.04
2023-05-09T15:51:04.212Z,71.16
2023-05-09T15:53:32.130Z,71.14
2023-05-09T15:55:58.856Z,70.78
2023-05-09T15:58:25.536Z,71.24
2023-05-09T16:00:52.458Z,71.29
2023-05-09T16:03:19.426Z,71.24
2023-05-09T16:05:46.332Z,71.43
2023-05-09T16:08:13.136Z,71.39
2023-05-09T16:10:40.507Z,71.33
2023-05-09T16:13:07.884Z,71.53
2023-05-09T16:15:35.338Z,71.45
2023-05-09T16:18:02.115Z,71.39
2023-05-09T16:20:28.857Z,71.70
2023-05-09T16:22:55.922Z,71.48
2023-05-09T16:25:22.768Z,72.10
2023-05-09T16:27:49.425Z,71.82
2023-05-09T16:30:16.833Z,72.02
2023-05-09T16:32:43.752Z,71.61
2023-05-09T16:35:10.570Z,72.08
2023-05-09T16:37:37.576Z,72.02
2023-05-09T16:40:04.878Z,72.01
2023-05-09T16:42:31.728Z,72.52
2023-05-09T16:44:58.549Z,72.48
2023-05-09T16:47:25.205Z,72.27
2023-05-09T16:49:51.832Z,72.80
2023-05-09T16:52:18.643Z,72.95
2023-05-09T16:54:45.373Z,72.83
2023-05-09T16:57:13.295Z,73.14
2023-05-09T16:59:40.378Z,73.08
2023-05-09T17:02:08.539Z,73.02
2023-05-09T17:04:37.489Z,73.41
2023-05-09T17:07:05.021Z,73.27
2023-05-09T17:09:32.281Z,73.54
2023-05-09T17:11:59.047Z,73.33
2023-05-09T17:14:26.939Z,73.70
2023-05-09T17:16:53.996Z,73.98
2023-05-09T17:19:23.376Z,73.60
2023-05-09T17:21:50.222Z,73.78
2023-05-09T17:24:17.389Z,74.25
2023-05-09T17:26:44.135Z,74.29
2023-05-09T17:29:10.935Z,74.52
2023-05-09T17:31:37.778Z,73.88
2023-05-09T17:34:05.534Z,74.03
2023-05-09T17:36:33.713Z,74.44
2023-05-09T17:39:00.904Z,74.50
2023-05-09T17:41:27.719Z,74.64
2023-05-09T17:43:57.339Z,74.76
2023-05-09T17:46:24.566Z,74.84
2023-05-09T17:48:51.361Z,74.57
2023-05-09T17:51:18.288Z,74.89
2023-05-09T17:53:44.960Z,74.85
2023-05-09T17:56:11.675Z,74.95
2023-05-09T17:58:38.509Z,75.24
2023-05-09T18:01:05.739Z,75.18
2023-05-09T18:03:33.003Z,75.02
2023-05-09T18:06:02.841Z,75.29
2023-05-09T18:09:45.974Z,75.20
2023-05-09T18:12:12.748Z,75.23
2023-05-09T18:14:39.685Z,75.46
2023-05-09T18:17:06.440Z,75.75
2023-05-09T18:19:33.908Z,75.74
2023-05-09T18:22:00.512Z,75.45
2023-05-09T18:24:27.336Z,75.49
2023-05-09T18:26:54.093Z,75.67
2023-05-09T18:29:20.709Z,75.77
2023-05-09T18:31:47.410Z,75.93
2023-05-09T18:34:14.070Z,75.62
2023-05-09T18:36:40.593Z,76.04
2023-05-09T18:39:08.866Z,75.99
2023-05-09T18:41:35.611Z,76.20
2023-05-09T18:44:02.230Z,76.02
2023-05-09T18:46:31.757Z,76.17
2023-05-09T18:48:58.992Z,76.19
2023-05-09T18:51:26.278Z,76.64
2023-05-09T18:53:53.510Z,76.09
2023-05-09T18:56:23.175Z,76.63
2023-05-09T18:58:50.263Z,76.21
2023-05-09T19:01:18.376Z,76.46
2023-05-09T19:03:46.238Z,76.50
2023-05-09T19:06:14.090Z,76.78
2023-05-09T19:08:42.511Z,76.63
2023-05-09T19:11:09.971Z,76.89
2023-05-09T19:13:38.476Z,76.95
2023-05-09T19:16:07.086Z,76.80
2023-05-09T19:18:34.720Z,76.72
2023-05-09T19:21:02.279Z,76.79
2023-05-09T19:23:29.917Z,77.13
2023-05-09T19:25:56.752Z,76.90
2023-05-09T19:28:23.497Z,77.35
2023-05-09T19:30:50.528Z,77.03
2023-05-09T19:33:17.820Z,76.92
2023-05-09T19:35:44.592Z,76.99
2023-05-09T19:38:12.072Z,76.99
2023-05-09T19:40:41.784Z,77.33
2023-05-09T19:43:08.406Z,77.27
2023-05-09T19:45:35.105Z,77.33
2023-05-09T19:48:02.158Z,77.55
2023-05-09T19:50:28.877Z,77.22
2023-05-09T19:52:55.641Z,77.36
2023-05-09T19:55:23.082Z,77.63
2023-05-09T19:57:49.645Z,77.69
2023-05-09T20:00:17.144Z,77.60
2023-05-09T20:02:44.158Z,77.45
2023-05-09T20:05:10.818Z,78.05
2023-05-09T20:07:37.604Z,77.69
2023-05-09T20:10:04.515Z,78.12
2023-05-09T20:12:31.387Z,77.76
2023-05-09T20:14:58.151Z,77.69
2023-05-09T20:17:25.064Z,78.21
2023-05-09T20:19:51.713Z,78.09
2023-05-09T20:22:18.449Z,78.33
2023-05-09T20:24:45.235Z,78.18
2023-05-09T20:27:12.870Z,78.10
2023-05-09T20:29:39.695Z,78.67
2023-05-09T20:32:06.727Z,78.35
2023-05-09T20:34:33.377Z,78.52
2023-05-09T20:37:00.131Z,78.48
2023-05-09T20:39:26.927Z,78.31
2023-05-09T20:41:55.547Z,78.10
2023-05-09T20:44:22.299Z,78.46
2023-05-09T20:46:49.204Z,78.33
2023-05-09T20:49:16.001Z,78.28
2023-05-09T20:51:42.767Z,78.82
2023-05-09T20:54:09.434Z,78.72
2023-05-09T20:56:36.103Z,78.32
2023-05-09T20:59:04.314Z,78.67
2023-05-09T21:01:32.473Z,79.11
2023-05-09T21:03:59.390Z,78.93
2023-05-09T21:06:26.173Z,78.82
2023-05-09T21:08:52.841Z,78.82
2023-05-09T21:11:19.456Z,79.12
2023-05-09T21:13:46.114Z,78.84
2023-05-09T21:16:12.759Z,79.31
2023-05-09T21:18:39.369Z,79.03
2023-05-09T21:21:08.317Z,78.86
2023-05-09T21:23:35.007Z,79.35
2023-05-09T21:26:02.475Z,79.38
2023-05-09T21:28:29.573Z,79.25
2023-05-09T21:30:56.359Z,79.32
2023-05-09T21:33:23.184Z,79.47
2023-05-09T21:35:49.927Z,79.37
2023-05-09T21:38:16.775Z,79.21
2023-05-09T21:40:43.350Z,79.26
2023-05-09T21:43:10.180Z,79.11
2023-05-09T21:45:36.857Z,79.50
2023-05-09T21:48:03.690Z,79.56
2023-05-09T21:50:30.520Z,79.30
2023-05-09T21:52:57.317Z,79.43
2023-05-09T21:55:23.986Z,79.65
2023-05-09T21:57:50.708Z,79.42
2023-05-09T22:00:20.990Z,79.56
2023-05-09T22:02:47.871Z,79.84
2023-05-09T22:05:14.631Z,79.57
2023-05-09T22:07:41.249Z,79.64
2023-05-09T22:10:08.413Z,79.65
2023-05-09T22:12:35.053Z,79.99
2023-05-09T22:15:01.988Z,79.98
2023-05-09T22:17:28.639Z,80.01
2023-05-09T22:19:55.345Z,79.95
2023-05-09T22:22:22.020Z,79.96
2023-05-09T22:24:49.768Z,80.11
2023-05-09T22:27:16.416Z,80.16
2023-05-09T22:29:43.068Z,80.20
2023-05-09T22:32:09.758Z,80.21
2023-05-09T22:34:36.585Z,80.13
2023-05-09T22:37:03.637Z,80.00
2023-05-09T22:39:30.910Z,80.17
2023-05-09T22:41:57.608Z,80.15
2023-05-09T22:44:24.314Z,80.24
2023-05-09T22:46:50.920Z,80.24
2023-05-09T22:49:17.751Z,80.43
2023-05-09T22:51:44.348Z,80.29
2023-05-09T22:54:11.003Z,80.43
2023-05-09T22:56:37.594Z,80.29
2023-05-09T22:59:04.620Z,80.60
2023-05-09T23:01:31.461Z,80.31
2023-05-09T23:03:58.192Z,80.57
2023-05-09T23:06:24.887Z,80.10
2023-05-09T23:08:51.428Z,80.18
2023-05-09T23:11:18.166Z,80.55
2023-05-09T23:13:44.852Z,80.30
2023-05-09T23:16:11.526Z,80.06
2023-05-09T23:18:38.350Z,80.14
2023-05-09T23:21:05.016Z,80.46
2023-05-09T23:23:31.660Z,80.43
2023-05-09T23:25:58.524Z,80.31
2023-05-09T23:28:25.391Z,80.19
2023-05-09T23:30:53.621Z,79.98
2023-05-09T23:33:20.701Z,79.98
2023-05-09T23:35:48.162Z,79.74
2023-05-09T23:38:14.817Z,79.75
2023-05-09T23:40:44.850Z,79.90
2023-05-09T23:43:12.668Z,79.75
2023-05-09T23:45:39.300Z,79.74
2023-05-09T23:48:06.012Z,79.97
2023-05-09T23:50:32.723Z,79.82
2023-05-09T23:52:59.298Z,79.68
2023-05-09T23:55:25.870Z,79.76
2023-05-09T23:57:52.577Z,79.64
